• Join FlightAware (Why Join?)
  • Login
  • US Flag 
01:25AM EDT


 

Airport Tracker/Info


-or-


 

Live Flight TrackerFlight Track Log ✈ OPT332 ✈ 19-Sep-2013 ✈ KTEB - KBWI

Flight Track Log - Related Links

Times and Time Zones

All times are in EDT time to prevent confusion due to time zone crossing. See the OPT332 flight status page for this flight to view local times or setup timezone preferences in your user account.

Time Position Orientation Groundspeed Altitude Reporting Facility
EDT Latitude Longitude Course Direction KTS MPH feet Rate Location/Type
06:27AM 40.8256 -74.1056 250° West 197 227 1,300  Level FlightAware ADS-B
06:28AM 40.8150 -74.1495 252° West 224 258 2,400 2,100 Climbing FlightAware ADS-B
06:28AM 40.8143 -74.1541 259° West 226 260 2,700 4,260 Climbing FlightAware ADS-B
06:28AM 40.8138 -74.1588 262° West 227 261 2,900 4,260 Climbing FlightAware ADS-B
06:28AM 40.8136 -74.1630 266° West 228 262 3,200 4,980 Climbing FlightAware ADS-B
06:28AM 40.8133 -74.1767 268° West 236 272 3,900 4,800 Climbing FlightAware ADS-B
06:29AM 40.8128 -74.1990 268° West 236 272 5,200 4,620 Climbing FlightAware ADS-B
06:29AM 40.8129 -74.2152 270° West 241 277 6,000 3,960 Climbing FlightAware ADS-B
06:29AM 40.8137 -74.2396 272° West 251 289 7,000 4,080 Climbing FlightAware ADS-B
06:29AM 40.8148 -74.2639 273° West 256 295 8,200 4,080 Climbing FlightAware ADS-B
06:30AM 40.8157 -74.2843 273° West 264 304 9,000 3,000 Climbing FlightAware ADS-B
06:30AM 40.8157 -74.3036 270° West 285 328 9,400 1,560 Climbing FlightAware ADS-B
06:30AM 40.8145 -74.3309 267° West 304 350 9,700 3,180 Climbing FlightAware ADS-B
06:31AM 40.8109 -74.3878 265° West 303 349 11,800 4,020 Climbing FlightAware ADS-B
06:31AM 40.8094 -74.4047 263° West 305 351 12,400 3,600 Climbing FlightAware ADS-B
06:31AM 40.8072 -74.4143 253° West 307 353 12,700 3,000 Climbing FlightAware ADS-B
06:31AM 40.8040 -74.4226 243° Southwest 308 354 12,900 3,240 Climbing FlightAware ADS-B
06:31AM 40.7991 -74.4309 232° Southwest 308 354 13,300 3,180 Climbing FlightAware ADS-B
06:31AM 40.7701 -74.4503 207° Southwest 317 365 14,400 1,560 Climbing FlightAware ADS-B
06:32AM 40.7207 -74.4702 197° South 341 392 14,800 660 Climbing FlightAware ADS-B
06:32AM 40.6638 -74.4959 199° South 341 392 15,200 1,020 Climbing FlightAware ADS-B
06:33AM 40.6211 -74.5742 199° South 339 390 16,300 1,200 Climbing New York Center
06:34AM 40.5722 -74.6697 236° Southwest 344 396 17,400 780 Climbing New York Center
06:35AM 40.5142 -74.7839 236° Southwest 349 402 17,900 300 Climbing New York Center
06:36AM 40.4583 -74.8953 237° Southwest 367 422 18,000  Climbing New York Center
06:37AM 40.3961 -75.0058 234° Southwest 377 434 18,000  Level New York Center
06:38AM 40.3233 -75.1103 228° Southwest 382 440 18,000  Level New York Center
06:39AM 40.2575 -75.2042 227° Southwest 395 455 18,000  Level New York Center
06:40AM 40.1717 -75.3183 225° Southwest 405 466 18,000  Level New York Center
06:41AM 40.1056 -75.4117 227° Southwest 405 466 18,000  Level New York Center
06:42AM 40.0239 -75.5256 227° Southwest 400 460 18,000  Level New York Center
06:43AM 39.9575 -75.6183 227° Southwest 400 460 18,000 -480 Level New York Center
06:44AM 39.8839 -75.7378 231° Southwest 395 455 17,100 -1,200 Descending New York Center
06:45AM 39.8317 -75.8367 236° Southwest 382 440 15,700 -1,380 Descending New York Center
06:48AM 39.7622 -75.9466 247° West  Level FlightAware Approximate
06:48AM 39.6833 -76.1333 247° West 302 348 12,000  Level Potomac TRACON
06:49AM 39.6333 -76.2167 232° Southwest 295 339 11,000 -1,740 Descending Potomac TRACON
06:51AM 39.5333 -76.4000 235° Southwest 282 325 6,900 -2,040 Descending Potomac TRACON
06:52AM 39.5000 -76.4667 237° Southwest 259 298 4,900 -1,560 Descending Potomac TRACON
06:53AM 39.4500 -76.4833 194° South 262 302 4,000 -480 Descending Potomac TRACON
06:54AM 39.3667 -76.4500 163° South 266 306 4,000 -360 Level Potomac TRACON
06:55AM 39.3000 -76.4333 169° South 260 299 3,300 -540 Descending Potomac TRACON
06:56AM 39.2333 -76.4167 169° South 236 272 3,000 -180 Descending Potomac TRACON
06:57AM 39.1833 -76.4167 180° South 223 257 3,000  Level Potomac TRACON
06:58AM 39.1167 -76.4333 191° South 227 261 3,000  Level Potomac TRACON
06:59AM 39.0833 -76.4833 229° Southwest 221 254 3,000 -420 Level Potomac TRACON
07:00AM 39.0500 -76.5333 229° Southwest 194 223 2,300 -720 Descending Potomac TRACON
07:01AM 39.0667 -76.5833 293° West 184 212 1,800 -480 Descending Potomac TRACON
07:02AM 39.1000 -76.6000 339° North 150 173 1,400 -480 Descending Potomac TRACON
07:03AM 39.1333 -76.6333 322° Northwest 128 147 900 -660 Descending Potomac TRACON
07:04AM 39.1500 -76.6500 322° Northwest 120 138 300 -720 Descending Potomac TRACON